sensor_id;sensor_type;location;lat;lon;timestamp;temperature;humidity
80695;DHT22;70059;42.702;23.312;2024-01-30T00:01:26;2.10;56.60
80695;DHT22;70059;42.702;23.312;2024-01-30T00:03:51;2.10;56.30
80695;DHT22;70059;42.702;23.312;2024-01-30T00:06:20;2.00;56.80
80695;DHT22;70059;42.702;23.312;2024-01-30T00:08:46;2.00;56.60
80695;DHT22;70059;42.702;23.312;2024-01-30T00:11:14;2.00;57.60
80695;DHT22;70059;42.702;23.312;2024-01-30T00:13:40;2.10;56.60
80695;DHT22;70059;42.702;23.312;2024-01-30T00:16:06;2.20;56.10
80695;DHT22;70059;42.702;23.312;2024-01-30T00:18:32;2.20;55.40
80695;DHT22;70059;42.702;23.312;2024-01-30T00:20:58;2.30;54.80
80695;DHT22;70059;42.702;23.312;2024-01-30T00:23:23;2.40;54.90
80695;DHT22;70059;42.702;23.312;2024-01-30T00:25:50;2.20;54.80
80695;DHT22;70059;42.702;23.312;2024-01-30T00:28:16;2.30;54.90
80695;DHT22;70059;42.702;23.312;2024-01-30T00:30:41;2.00;57.30
80695;DHT22;70059;42.702;23.312;2024-01-30T00:33:09;1.90;56.80
80695;DHT22;70059;42.702;23.312;2024-01-30T00:35:34;1.90;57.20
80695;DHT22;70059;42.702;23.312;2024-01-30T00:38:00;1.80;57.30
80695;DHT22;70059;42.702;23.312;2024-01-30T00:40:26;1.80;57.80
80695;DHT22;70059;42.702;23.312;2024-01-30T00:42:52;1.70;59.20
80695;DHT22;70059;42.702;23.312;2024-01-30T00:45:17;1.60;57.90
80695;DHT22;70059;42.702;23.312;2024-01-30T00:47:43;1.70;58.00
80695;DHT22;70059;42.702;23.312;2024-01-30T00:50:09;1.70;58.60
80695;DHT22;70059;42.702;23.312;2024-01-30T00:52:35;1.70;58.10
80695;DHT22;70059;42.702;23.312;2024-01-30T00:55:01;1.70;58.40
80695;DHT22;70059;42.702;23.312;2024-01-30T00:57:28;1.70;59.20
80695;DHT22;70059;42.702;23.312;2024-01-30T00:59:53;1.90;57.90
80695;DHT22;70059;42.702;23.312;2024-01-30T01:02:19;1.80;57.70
80695;DHT22;70059;42.702;23.312;2024-01-30T01:04:45;1.80;57.10
80695;DHT22;70059;42.702;23.312;2024-01-30T01:07:11;1.80;57.50
80695;DHT22;70059;42.702;23.312;2024-01-30T01:09:37;1.90;56.50
80695;DHT22;70059;42.702;23.312;2024-01-30T01:12:03;1.90;56.70
80695;DHT22;70059;42.702;23.312;2024-01-30T01:14:29;1.80;56.70
80695;DHT22;70059;42.702;23.312;2024-01-30T01:16:55;1.80;57.50
80695;DHT22;70059;42.702;23.312;2024-01-30T01:19:21;1.90;57.10
80695;DHT22;70059;42.702;23.312;2024-01-30T01:21:47;2.10;57.50
80695;DHT22;70059;42.702;23.312;2024-01-30T01:24:13;2.10;56.80
80695;DHT22;70059;42.702;23.312;2024-01-30T01:26:39;2.10;56.90
80695;DHT22;70059;42.702;23.312;2024-01-30T01:29:05;2.20;57.80
80695;DHT22;70059;42.702;23.312;2024-01-30T01:31:36;2.00;56.60
80695;DHT22;70059;42.702;23.312;2024-01-30T01:34:05;1.90;56.00
80695;DHT22;70059;42.702;23.312;2024-01-30T01:36:31;1.90;56.90
80695;DHT22;70059;42.702;23.312;2024-01-30T01:38:57;1.90;56.80
80695;DHT22;70059;42.702;23.312;2024-01-30T01:41:22;1.80;57.30
80695;DHT22;70059;42.702;23.312;2024-01-30T01:43:48;1.70;57.20
80695;DHT22;70059;42.702;23.312;2024-01-30T01:46:14;1.80;58.20
80695;DHT22;70059;42.702;23.312;2024-01-30T01:48:40;1.90;57.90
80695;DHT22;70059;42.702;23.312;2024-01-30T01:51:06;1.90;57.80
80695;DHT22;70059;42.702;23.312;2024-01-30T01:53:32;1.80;57.60
80695;DHT22;70059;42.702;23.312;2024-01-30T01:55:58;1.80;57.30
80695;DHT22;70059;42.702;23.312;2024-01-30T01:58:26;1.60;57.30
80695;DHT22;70059;42.702;23.312;2024-01-30T02:00:54;1.60;58.00
80695;DHT22;70059;42.702;23.312;2024-01-30T02:03:20;1.60;58.30
80695;DHT22;70059;42.702;23.312;2024-01-30T02:05:50;1.60;57.60
80695;DHT22;70059;42.702;23.312;2024-01-30T02:08:16;1.60;57.70
80695;DHT22;70059;42.702;23.312;2024-01-30T02:10:42;1.70;57.40
80695;DHT22;70059;42.702;23.312;2024-01-30T02:13:07;1.80;57.40
80695;DHT22;70059;42.702;23.312;2024-01-30T02:15:33;1.90;56.30
80695;DHT22;70059;42.702;23.312;2024-01-30T02:17:59;1.90;55.90
80695;DHT22;70059;42.702;23.312;2024-01-30T02:20:25;2.00;56.60
80695;DHT22;70059;42.702;23.312;2024-01-30T02:22:54;2.10;55.90
80695;DHT22;70059;42.702;23.312;2024-01-30T02:25:36;2.20;54.80
80695;DHT22;70059;42.702;23.312;2024-01-30T02:28:01;2.10;55.70
80695;DHT22;70059;42.702;23.312;2024-01-30T02:30:27;2.20;55.90
80695;DHT22;70059;42.702;23.312;2024-01-30T02:32:53;2.30;55.10
80695;DHT22;70059;42.702;23.312;2024-01-30T02:35:18;2.30;55.20
80695;DHT22;70059;42.702;23.312;2024-01-30T02:37:44;2.40;56.10
80695;DHT22;70059;42.702;23.312;2024-01-30T02:40:10;2.40;54.80
80695;DHT22;70059;42.702;23.312;2024-01-30T02:42:36;2.60;55.00
80695;DHT22;70059;42.702;23.312;2024-01-30T02:45:01;2.60;53.60
80695;DHT22;70059;42.702;23.312;2024-01-30T02:47:27;2.80;53.50
80695;DHT22;70059;42.702;23.312;2024-01-30T02:49:52;2.80;53.20
80695;DHT22;70059;42.702;23.312;2024-01-30T02:52:18;2.70;53.30
80695;DHT22;70059;42.702;23.312;2024-01-30T02:54:44;2.80;53.70
80695;DHT22;70059;42.702;23.312;2024-01-30T02:57:10;3.00;53.50
80695;DHT22;70059;42.702;23.312;2024-01-30T02:59:36;3.20;52.00
80695;DHT22;70059;42.702;23.312;2024-01-30T03:02:01;3.10;51.50
80695;DHT22;70059;42.702;23.312;2024-01-30T03:04:27;3.10;52.20
80695;DHT22;70059;42.702;23.312;2024-01-30T03:06:55;3.10;52.50
80695;DHT22;70059;42.702;23.312;2024-01-30T03:09:21;3.10;52.10
80695;DHT22;70059;42.702;23.312;2024-01-30T03:11:46;3.20;51.40
80695;DHT22;70059;42.702;23.312;2024-01-30T03:14:12;3.10;51.70
80695;DHT22;70059;42.702;23.312;2024-01-30T03:16:38;3.00;52.90
80695;DHT22;70059;42.702;23.312;2024-01-30T03:19:05;3.00;52.10
80695;DHT22;70059;42.702;23.312;2024-01-30T03:21:30;3.00;51.90
80695;DHT22;70059;42.702;23.312;2024-01-30T03:23:56;2.90;52.10
80695;DHT22;70059;42.702;23.312;2024-01-30T03:26:22;2.80;52.70
80695;DHT22;70059;42.702;23.312;2024-01-30T03:28:47;2.80;52.30
80695;DHT22;70059;42.702;23.312;2024-01-30T03:31:15;2.90;52.20
80695;DHT22;70059;42.702;23.312;2024-01-30T03:33:41;3.00;51.70
80695;DHT22;70059;42.702;23.312;2024-01-30T03:36:08;3.20;51.50
80695;DHT22;70059;42.702;23.312;2024-01-30T03:38:34;3.20;51.40
80695;DHT22;70059;42.702;23.312;2024-01-30T03:41:00;3.10;51.50
80695;DHT22;70059;42.702;23.312;2024-01-30T03:43:26;3.10;51.00
80695;DHT22;70059;42.702;23.312;2024-01-30T03:45:51;3.10;50.80
80695;DHT22;70059;42.702;23.312;2024-01-30T03:48:18;3.10;50.80
80695;DHT22;70059;42.702;23.312;2024-01-30T03:50:43;3.10;50.30
80695;DHT22;70059;42.702;23.312;2024-01-30T03:53:09;3.10;50.90
80695;DHT22;70059;42.702;23.312;2024-01-30T03:55:35;3.00;51.40
80695;DHT22;70059;42.702;23.312;2024-01-30T03:58:00;3.10;50.30
80695;DHT22;70059;42.702;23.312;2024-01-30T04:00:26;3.10;50.50
80695;DHT22;70059;42.702;23.312;2024-01-30T04:02:52;3.10;51.00
80695;DHT22;70059;42.702;23.312;2024-01-30T04:05:17;2.90;51.00
80695;DHT22;70059;42.702;23.312;2024-01-30T04:07:43;2.90;50.50
80695;DHT22;70059;42.702;23.312;2024-01-30T04:10:10;2.90;50.80
80695;DHT22;70059;42.702;23.312;2024-01-30T04:12:36;2.90;51.00
80695;DHT22;70059;42.702;23.312;2024-01-30T04:15:02;2.80;50.50
80695;DHT22;70059;42.702;23.312;2024-01-30T04:17:28;2.70;52.50
80695;DHT22;70059;42.702;23.312;2024-01-30T04:19:54;2.50;51.40
80695;DHT22;70059;42.702;23.312;2024-01-30T04:22:20;2.30;51.60
80695;DHT22;70059;42.702;23.312;2024-01-30T04:24:46;2.20;51.70
80695;DHT22;70059;42.702;23.312;2024-01-30T04:27:12;2.10;51.90
80695;DHT22;70059;42.702;23.312;2024-01-30T04:29:37;2.00;53.20
80695;DHT22;70059;42.702;23.312;2024-01-30T04:32:04;2.00;52.00
80695;DHT22;70059;42.702;23.312;2024-01-30T04:34:29;2.00;52.50
80695;DHT22;70059;42.702;23.312;2024-01-30T04:36:55;1.90;52.60
80695;DHT22;70059;42.702;23.312;2024-01-30T04:39:21;1.80;53.10
80695;DHT22;70059;42.702;23.312;2024-01-30T04:41:47;1.80;53.40
80695;DHT22;70059;42.702;23.312;2024-01-30T04:44:14;1.80;53.60
80695;DHT22;70059;42.702;23.312;2024-01-30T04:46:39;1.80;53.30
80695;DHT22;70059;42.702;23.312;2024-01-30T04:49:05;1.80;53.50
80695;DHT22;70059;42.702;23.312;2024-01-30T04:51:33;1.60;53.70
80695;DHT22;70059;42.702;23.312;2024-01-30T04:53:59;1.50;54.50
80695;DHT22;70059;42.702;23.312;2024-01-30T04:56:24;1.30;54.40
80695;DHT22;70059;42.702;23.312;2024-01-30T04:58:50;1.10;55.40
80695;DHT22;70059;42.702;23.312;2024-01-30T05:01:16;1.10;56.10
80695;DHT22;70059;42.702;23.312;2024-01-30T05:03:42;1.10;56.10
80695;DHT22;70059;42.702;23.312;2024-01-30T05:06:08;1.10;55.80
80695;DHT22;70059;42.702;23.312;2024-01-30T05:08:34;1.10;56.00
80695;DHT22;70059;42.702;23.312;2024-01-30T05:11:02;1.10;56.20
80695;DHT22;70059;42.702;23.312;2024-01-30T05:13:30;1.10;56.40
80695;DHT22;70059;42.702;23.312;2024-01-30T05:15:56;1.10;56.30
80695;DHT22;70059;42.702;23.312;2024-01-30T05:18:22;1.10;56.70
80695;DHT22;70059;42.702;23.312;2024-01-30T05:20:58;1.00;57.00
80695;DHT22;70059;42.702;23.312;2024-01-30T05:23:28;1.00;57.10
80695;DHT22;70059;42.702;23.312;2024-01-30T05:25:54;1.00;57.40
80695;DHT22;70059;42.702;23.312;2024-01-30T05:28:23;1.00;58.40
80695;DHT22;70059;42.702;23.312;2024-01-30T05:30:49;1.00;57.80
80695;DHT22;70059;42.702;23.312;2024-01-30T05:33:15;1.00;57.60
80695;DHT22;70059;42.702;23.312;2024-01-30T05:35:40;1.00;57.50
80695;DHT22;70059;42.702;23.312;2024-01-30T05:38:06;0.90;57.70
80695;DHT22;70059;42.702;23.312;2024-01-30T05:40:35;0.90;57.70
80695;DHT22;70059;42.702;23.312;2024-01-30T05:43:06;0.80;57.60
80695;DHT22;70059;42.702;23.312;2024-01-30T05:45:36;0.80;57.80
80695;DHT22;70059;42.702;23.312;2024-01-30T05:48:02;0.80;57.40
80695;DHT22;70059;42.702;23.312;2024-01-30T05:50:27;0.80;57.60
80695;DHT22;70059;42.702;23.312;2024-01-30T05:52:53;0.90;57.20
80695;DHT22;70059;42.702;23.312;2024-01-30T05:55:19;0.90;57.00
80695;DHT22;70059;42.702;23.312;2024-01-30T05:57:44;0.80;57.00
80695;DHT22;70059;42.702;23.312;2024-01-30T06:00:10;0.70;57.30
80695;DHT22;70059;42.702;23.312;2024-01-30T06:02:36;0.70;57.60
80695;DHT22;70059;42.702;23.312;2024-01-30T06:05:02;0.70;57.60
80695;DHT22;70059;42.702;23.312;2024-01-30T06:07:28;0.80;57.10
80695;DHT22;70059;42.702;23.312;2024-01-30T06:09:54;0.70;56.50
80695;DHT22;70059;42.702;23.312;2024-01-30T06:12:20;0.80;57.10
80695;DHT22;70059;42.702;23.312;2024-01-30T06:14:46;0.80;56.50
80695;DHT22;70059;42.702;23.312;2024-01-30T06:17:12;0.90;56.10
80695;DHT22;70059;42.702;23.312;2024-01-30T06:19:40;0.90;56.40
80695;DHT22;70059;42.702;23.312;2024-01-30T06:22:06;1.00;55.60
80695;DHT22;70059;42.702;23.312;2024-01-30T06:24:32;1.10;54.40
80695;DHT22;70059;42.702;23.312;2024-01-30T06:26:59;1.10;54.50
80695;DHT22;70059;42.702;23.312;2024-01-30T06:29:25;1.10;55.10
80695;DHT22;70059;42.702;23.312;2024-01-30T06:31:54;1.40;54.30
80695;DHT22;70059;42.702;23.312;2024-01-30T06:34:21;1.50;53.30
80695;DHT22;70059;42.702;23.312;2024-01-30T06:36:47;1.50;53.40
80695;DHT22;70059;42.702;23.312;2024-01-30T06:39:12;1.50;53.40
80695;DHT22;70059;42.702;23.312;2024-01-30T06:41:38;1.50;53.30
80695;DHT22;70059;42.702;23.312;2024-01-30T06:44:04;1.60;53.40
80695;DHT22;70059;42.702;23.312;2024-01-30T06:46:31;1.70;53.30
80695;DHT22;70059;42.702;23.312;2024-01-30T06:48:58;1.70;53.00
80695;DHT22;70059;42.702;23.312;2024-01-30T06:51:23;1.80;52.50
80695;DHT22;70059;42.702;23.312;2024-01-30T06:53:49;2.00;52.30
80695;DHT22;70059;42.702;23.312;2024-01-30T06:56:16;2.00;52.20
80695;DHT22;70059;42.702;23.312;2024-01-30T06:58:51;2.10;51.50
80695;DHT22;70059;42.702;23.312;2024-01-30T07:01:17;2.20;51.50
80695;DHT22;70059;42.702;23.312;2024-01-30T07:03:46;2.40;51.40
80695;DHT22;70059;42.702;23.312;2024-01-30T07:06:12;2.90;50.60
80695;DHT22;70059;42.702;23.312;2024-01-30T07:08:44;3.40;49.10
80695;DHT22;70059;42.702;23.312;2024-01-30T07:11:10;4.10;47.40
80695;DHT22;70059;42.702;23.312;2024-01-30T07:13:37;4.70;45.30
80695;DHT22;70059;42.702;23.312;2024-01-30T07:16:03;5.20;44.30
80695;DHT22;70059;42.702;23.312;2024-01-30T07:18:29;5.60;42.90
80695;DHT22;70059;42.702;23.312;2024-01-30T07:20:55;6.00;41.30
80695;DHT22;70059;42.702;23.312;2024-01-30T07:23:20;6.30;39.90
80695;DHT22;70059;42.702;23.312;2024-01-30T07:25:46;6.40;40.00
80695;DHT22;70059;42.702;23.312;2024-01-30T07:28:15;6.70;38.40
80695;DHT22;70059;42.702;23.312;2024-01-30T07:30:43;7.10;38.90
80695;DHT22;70059;42.702;23.312;2024-01-30T07:33:09;7.50;36.60
80695;DHT22;70059;42.702;23.312;2024-01-30T07:35:35;7.80;36.30
80695;DHT22;70059;42.702;23.312;2024-01-30T07:38:01;8.00;35.30
80695;DHT22;70059;42.702;23.312;2024-01-30T07:40:27;7.80;34.50
80695;DHT22;70059;42.702;23.312;2024-01-30T07:42:54;7.50;34.30
80695;DHT22;70059;42.702;23.312;2024-01-30T07:45:20;7.10;35.40
80695;DHT22;70059;42.702;23.312;2024-01-30T07:47:50;7.20;36.00
80695;DHT22;70059;42.702;23.312;2024-01-30T07:50:16;7.60;35.60
80695;DHT22;70059;42.702;23.312;2024-01-30T07:52:44;8.10;34.40
80695;DHT22;70059;42.702;23.312;2024-01-30T07:55:10;8.50;33.50
80695;DHT22;70059;42.702;23.312;2024-01-30T07:57:38;8.60;33.30
80695;DHT22;70059;42.702;23.312;2024-01-30T08:00:05;8.90;32.20
80695;DHT22;70059;42.702;23.312;2024-01-30T08:02:32;9.00;32.40
80695;DHT22;70059;42.702;23.312;2024-01-30T08:05:01;8.90;31.80
80695;DHT22;70059;42.702;23.312;2024-01-30T08:07:27;8.80;32.40
80695;DHT22;70059;42.702;23.312;2024-01-30T08:09:55;9.00;32.20
80695;DHT22;70059;42.702;23.312;2024-01-30T08:12:21;9.40;31.50
80695;DHT22;70059;42.702;23.312;2024-01-30T08:14:49;9.90;29.90
80695;DHT22;70059;42.702;23.312;2024-01-30T08:17:23;10.40;29.20
80695;DHT22;70059;42.702;23.312;2024-01-30T08:20:09;10.70;29.10
80695;DHT22;70059;42.702;23.312;2024-01-30T08:23:15;11.20;28.60
80695;DHT22;70059;42.702;23.312;2024-01-30T08:25:41;11.60;27.30
80695;DHT22;70059;42.702;23.312;2024-01-30T08:28:07;12.10;26.90
80695;DHT22;70059;42.702;23.312;2024-01-30T08:30:33;12.70;26.20
80695;DHT22;70059;42.702;23.312;2024-01-30T08:32:59;13.30;25.70
80695;DHT22;70059;42.702;23.312;2024-01-30T08:35:25;13.90;24.40
80695;DHT22;70059;42.702;23.312;2024-01-30T08:37:50;14.60;23.40
80695;DHT22;70059;42.702;23.312;2024-01-30T08:40:19;15.10;23.20
80695;DHT22;70059;42.702;23.312;2024-01-30T08:42:45;15.70;22.20
80695;DHT22;70059;42.702;23.312;2024-01-30T08:45:10;16.30;21.80
80695;DHT22;70059;42.702;23.312;2024-01-30T08:47:40;16.90;22.00
80695;DHT22;70059;42.702;23.312;2024-01-30T08:50:06;17.30;20.80
80695;DHT22;70059;42.702;23.312;2024-01-30T08:52:32;18.10;19.70
80695;DHT22;70059;42.702;23.312;2024-01-30T08:54:59;18.60;19.40
80695;DHT22;70059;42.702;23.312;2024-01-30T08:57:25;18.60;18.70
80695;DHT22;70059;42.702;23.312;2024-01-30T08:59:54;18.90;18.90
80695;DHT22;70059;42.702;23.312;2024-01-30T09:02:20;19.80;17.60
80695;DHT22;70059;42.702;23.312;2024-01-30T09:04:46;20.10;17.80
80695;DHT22;70059;42.702;23.312;2024-01-30T09:07:12;20.40;17.30
80695;DHT22;70059;42.702;23.312;2024-01-30T09:09:39;20.60;17.30
80695;DHT22;70059;42.702;23.312;2024-01-30T09:12:06;20.60;16.90
80695;DHT22;70059;42.702;23.312;2024-01-30T09:14:37;19.70;17.90
80695;DHT22;70059;42.702;23.312;2024-01-30T09:17:03;18.70;18.50
80695;DHT22;70059;42.702;23.312;2024-01-30T09:19:30;17.20;20.40
80695;DHT22;70059;42.702;23.312;2024-01-30T09:21:55;16.50;21.50
80695;DHT22;70059;42.702;23.312;2024-01-30T09:24:25;15.40;22.50
80695;DHT22;70059;42.702;23.312;2024-01-30T09:26:51;14.80;22.80
80695;DHT22;70059;42.702;23.312;2024-01-30T09:29:16;14.60;23.40
80695;DHT22;70059;42.702;23.312;2024-01-30T09:31:46;14.30;24.00
80695;DHT22;70059;42.702;23.312;2024-01-30T09:34:12;14.70;23.40
80695;DHT22;70059;42.702;23.312;2024-01-30T09:36:38;15.90;22.30
80695;DHT22;70059;42.702;23.312;2024-01-30T09:39:07;17.40;20.60
80695;DHT22;70059;42.702;23.312;2024-01-30T09:41:33;18.60;19.20
80695;DHT22;70059;42.702;23.312;2024-01-30T09:44:19;19.20;18.40
80695;DHT22;70059;42.702;23.312;2024-01-30T09:46:47;19.80;18.20
80695;DHT22;70059;42.702;23.312;2024-01-30T09:49:15;21.00;16.90
80695;DHT22;70059;42.702;23.312;2024-01-30T09:51:44;21.40;16.20
80695;DHT22;70059;42.702;23.312;2024-01-30T09:54:10;20.90;16.00
80695;DHT22;70059;42.702;23.312;2024-01-30T09:56:39;19.40;17.40
80695;DHT22;70059;42.702;23.312;2024-01-30T09:59:16;17.60;19.40
80695;DHT22;70059;42.702;23.312;2024-01-30T10:01:42;16.70;20.20
80695;DHT22;70059;42.702;23.312;2024-01-30T10:04:18;16.10;21.10
80695;DHT22;70059;42.702;23.312;2024-01-30T10:06:43;14.80;22.30
80695;DHT22;70059;42.702;23.312;2024-01-30T10:09:09;13.60;23.80
80695;DHT22;70059;42.702;23.312;2024-01-30T10:11:36;12.50;25.30
80695;DHT22;70059;42.702;23.312;2024-01-30T10:14:02;11.60;26.70
80695;DHT22;70059;42.702;23.312;2024-01-30T10:16:30;10.80;27.80
80695;DHT22;70059;42.702;23.312;2024-01-30T10:18:56;10.60;29.00
80695;DHT22;70059;42.702;23.312;2024-01-30T10:21:30;11.70;28.10
80695;DHT22;70059;42.702;23.312;2024-01-30T10:23:59;13.70;25.40
80695;DHT22;70059;42.702;23.312;2024-01-30T10:26:25;14.40;23.40
80695;DHT22;70059;42.702;23.312;2024-01-30T10:28:51;13.80;24.10
80695;DHT22;70059;42.702;23.312;2024-01-30T10:32:01;14.40;24.00
80695;DHT22;70059;42.702;23.312;2024-01-30T10:34:27;16.20;22.00
80695;DHT22;70059;42.702;23.312;2024-01-30T10:37:21;18.50;19.40
80695;DHT22;70059;42.702;23.312;2024-01-30T10:39:56;19.90;17.70
80695;DHT22;70059;42.702;23.312;2024-01-30T10:42:48;21.00;17.10
80695;DHT22;70059;42.702;23.312;2024-01-30T10:45:17;22.30;15.70
80695;DHT22;70059;42.702;23.312;2024-01-30T10:47:54;23.40;14.40
80695;DHT22;70059;42.702;23.312;2024-01-30T10:50:26;24.70;13.10
80695;DHT22;70059;42.702;23.312;2024-01-30T10:53:12;25.60;12.60
80695;DHT22;70059;42.702;23.312;2024-01-30T10:55:39;25.70;11.90
80695;DHT22;70059;42.702;23.312;2024-01-30T10:58:05;25.60;12.00
80695;DHT22;70059;42.702;23.312;2024-01-30T11:00:34;25.30;12.10
80695;DHT22;70059;42.702;23.312;2024-01-30T11:03:00;24.90;12.80
80695;DHT22;70059;42.702;23.312;2024-01-30T11:05:29;25.00;12.60
80695;DHT22;70059;42.702;23.312;2024-01-30T11:08:22;24.60;12.90
80695;DHT22;70059;42.702;23.312;2024-01-30T11:10:48;24.50;12.80
80695;DHT22;70059;42.702;23.312;2024-01-30T11:13:20;24.30;13.10
80695;DHT22;70059;42.702;23.312;2024-01-30T11:15:50;24.00;13.10
80695;DHT22;70059;42.702;23.312;2024-01-30T11:18:26;23.10;14.00
80695;DHT22;70059;42.702;23.312;2024-01-30T11:21:36;22.60;14.40
80695;DHT22;70059;42.702;23.312;2024-01-30T11:24:05;22.60;14.50
80695;DHT22;70059;42.702;23.312;2024-01-30T11:26:33;21.60;15.10
80695;DHT22;70059;42.702;23.312;2024-01-30T11:29:03;20.60;16.30
80695;DHT22;70059;42.702;23.312;2024-01-30T11:31:33;19.90;17.00
80695;DHT22;70059;42.702;23.312;2024-01-30T11:33:59;18.90;17.40
80695;DHT22;70059;42.702;23.312;2024-01-30T11:36:26;17.80;19.10
80695;DHT22;70059;42.702;23.312;2024-01-30T11:38:54;17.30;20.00
80695;DHT22;70059;42.702;23.312;2024-01-30T11:41:23;17.10;19.60
80695;DHT22;70059;42.702;23.312;2024-01-30T11:43:57;16.00;20.60
80695;DHT22;70059;42.702;23.312;2024-01-30T11:46:25;15.10;21.90
80695;DHT22;70059;42.702;23.312;2024-01-30T11:48:50;14.40;23.30
80695;DHT22;70059;42.702;23.312;2024-01-30T11:51:17;13.90;24.00
80695;DHT22;70059;42.702;23.312;2024-01-30T11:53:49;14.10;24.00
80695;DHT22;70059;42.702;23.312;2024-01-30T11:56:15;14.00;23.90
80695;DHT22;70059;42.702;23.312;2024-01-30T11:58:47;13.80;24.00
80695;DHT22;70059;42.702;23.312;2024-01-30T12:01:15;13.40;24.50
80695;DHT22;70059;42.702;23.312;2024-01-30T12:03:42;12.90;25.00
80695;DHT22;70059;42.702;23.312;2024-01-30T12:06:08;12.80;25.50
80695;DHT22;70059;42.702;23.312;2024-01-30T12:08:34;13.50;25.30
80695;DHT22;70059;42.702;23.312;2024-01-30T12:11:00;14.10;24.20
80695;DHT22;70059;42.702;23.312;2024-01-30T12:13:33;14.60;23.40
80695;DHT22;70059;42.702;23.312;2024-01-30T12:16:11;14.90;22.90
80695;DHT22;70059;42.702;23.312;2024-01-30T12:18:38;15.40;22.40
80695;DHT22;70059;42.702;23.312;2024-01-30T12:21:05;15.90;22.00
80695;DHT22;70059;42.702;23.312;2024-01-30T12:23:30;16.30;22.40
80695;DHT22;70059;42.702;23.312;2024-01-30T12:25:58;16.50;21.10
80695;DHT22;70059;42.702;23.312;2024-01-30T12:28:24;16.50;21.10
80695;DHT22;70059;42.702;23.312;2024-01-30T12:30:50;16.10;21.50
80695;DHT22;70059;42.702;23.312;2024-01-30T12:33:31;16.00;21.80
80695;DHT22;70059;42.702;23.312;2024-01-30T12:36:04;16.00;21.60
80695;DHT22;70059;42.702;23.312;2024-01-30T12:38:30;16.30;21.40
80695;DHT22;70059;42.702;23.312;2024-01-30T12:40:56;16.30;21.20
80695;DHT22;70059;42.702;23.312;2024-01-30T12:43:24;16.00;21.30
80695;DHT22;70059;42.702;23.312;2024-01-30T12:45:54;16.20;21.60
80695;DHT22;70059;42.702;23.312;2024-01-30T12:48:20;16.30;21.30
80695;DHT22;70059;42.702;23.312;2024-01-30T12:50:46;16.50;21.70
80695;DHT22;70059;42.702;23.312;2024-01-30T12:53:14;16.60;21.30
80695;DHT22;70059;42.702;23.312;2024-01-30T12:55:40;16.70;20.90
80695;DHT22;70059;42.702;23.312;2024-01-30T12:58:05;16.80;20.70
80695;DHT22;70059;42.702;23.312;2024-01-30T13:00:31;17.00;20.40
80695;DHT22;70059;42.702;23.312;2024-01-30T13:02:58;17.40;20.50
80695;DHT22;70059;42.702;23.312;2024-01-30T13:05:24;17.50;20.00
80695;DHT22;70059;42.702;23.312;2024-01-30T13:07:50;17.90;20.00
80695;DHT22;70059;42.702;23.312;2024-01-30T13:10:17;18.10;19.10
80695;DHT22;70059;42.702;23.312;2024-01-30T13:12:43;18.30;18.90
80695;DHT22;70059;42.702;23.312;2024-01-30T13:15:09;18.50;19.00
80695;DHT22;70059;42.702;23.312;2024-01-30T13:17:36;18.70;19.80
80695;DHT22;70059;42.702;23.312;2024-01-30T13:20:02;19.10;18.70
80695;DHT22;70059;42.702;23.312;2024-01-30T13:22:32;19.20;18.20
80695;DHT22;70059;42.702;23.312;2024-01-30T13:24:58;19.30;18.00
80695;DHT22;70059;42.702;23.312;2024-01-30T13:27:24;19.40;17.90
80695;DHT22;70059;42.702;23.312;2024-01-30T13:29:50;19.30;18.00
80695;DHT22;70059;42.702;23.312;2024-01-30T13:32:15;19.20;18.20
80695;DHT22;70059;42.702;23.312;2024-01-30T13:34:41;19.20;18.30
80695;DHT22;70059;42.702;23.312;2024-01-30T13:37:08;19.20;18.50
80695;DHT22;70059;42.702;23.312;2024-01-30T13:39:34;19.20;18.30
80695;DHT22;70059;42.702;23.312;2024-01-30T13:42:00;19.20;18.10
80695;DHT22;70059;42.702;23.312;2024-01-30T13:44:25;19.20;18.10
80695;DHT22;70059;42.702;23.312;2024-01-30T13:46:51;19.40;18.20
80695;DHT22;70059;42.702;23.312;2024-01-30T13:49:17;19.30;17.90
80695;DHT22;70059;42.702;23.312;2024-01-30T13:51:42;19.20;18.20
80695;DHT22;70059;42.702;23.312;2024-01-30T13:54:08;19.10;18.50
80695;DHT22;70059;42.702;23.312;2024-01-30T13:56:34;19.00;18.90
80695;DHT22;70059;42.702;23.312;2024-01-30T13:59:03;18.70;18.90
80695;DHT22;70059;42.702;23.312;2024-01-30T14:01:40;18.50;19.00
80695;DHT22;70059;42.702;23.312;2024-01-30T14:04:06;18.20;19.50
80695;DHT22;70059;42.702;23.312;2024-01-30T14:06:36;18.00;19.70
80695;DHT22;70059;42.702;23.312;2024-01-30T14:09:02;17.80;19.80
80695;DHT22;70059;42.702;23.312;2024-01-30T14:11:29;17.40;20.40
80695;DHT22;70059;42.702;23.312;2024-01-30T14:13:55;17.30;20.50
80695;DHT22;70059;42.702;23.312;2024-01-30T14:19:42;16.80;20.80
80695;DHT22;70059;42.702;23.312;2024-01-30T14:22:08;15.80;21.50
80695;DHT22;70059;42.702;23.312;2024-01-30T14:24:42;15.40;22.20
80695;DHT22;70059;42.702;23.312;2024-01-30T14:27:07;14.80;22.80
80695;DHT22;70059;42.702;23.312;2024-01-30T14:29:39;14.10;23.40
80695;DHT22;70059;42.702;23.312;2024-01-30T14:32:07;13.20;24.80
80695;DHT22;70059;42.702;23.312;2024-01-30T14:34:33;12.50;25.90
80695;DHT22;70059;42.702;23.312;2024-01-30T14:36:58;12.00;27.30
80695;DHT22;70059;42.702;23.312;2024-01-30T14:39:27;11.60;27.10
80695;DHT22;70059;42.702;23.312;2024-01-30T14:41:53;11.20;28.00
80695;DHT22;70059;42.702;23.312;2024-01-30T14:44:19;10.60;29.00
80695;DHT22;70059;42.702;23.312;2024-01-30T14:46:44;10.20;29.50
80695;DHT22;70059;42.702;23.312;2024-01-30T14:49:10;9.80;30.10
80695;DHT22;70059;42.702;23.312;2024-01-30T14:51:36;9.30;31.10
80695;DHT22;70059;42.702;23.312;2024-01-30T14:54:02;8.80;32.40
80695;DHT22;70059;42.702;23.312;2024-01-30T14:56:50;8.50;33.20
80695;DHT22;70059;42.702;23.312;2024-01-30T14:59:17;8.10;34.40
80695;DHT22;70059;42.702;23.312;2024-01-30T15:01:49;7.80;35.20
80695;DHT22;70059;42.702;23.312;2024-01-30T15:04:20;7.50;35.60
80695;DHT22;70059;42.702;23.312;2024-01-30T15:06:49;7.20;36.00
80695;DHT22;70059;42.702;23.312;2024-01-30T15:09:15;6.90;37.00
80695;DHT22;70059;42.702;23.312;2024-01-30T15:11:50;6.70;37.60
80695;DHT22;70059;42.702;23.312;2024-01-30T15:14:28;6.50;38.20
80695;DHT22;70059;42.702;23.312;2024-01-30T15:16:54;6.20;38.10
80695;DHT22;70059;42.702;23.312;2024-01-30T15:19:20;6.10;39.50
80695;DHT22;70059;42.702;23.312;2024-01-30T15:21:45;5.90;39.30
80695;DHT22;70059;42.702;23.312;2024-01-30T15:24:11;5.80;39.80
80695;DHT22;70059;42.702;23.312;2024-01-30T15:26:41;5.60;40.10
80695;DHT22;70059;42.702;23.312;2024-01-30T15:29:07;5.50;40.90
80695;DHT22;70059;42.702;23.312;2024-01-30T15:31:32;5.30;41.60